Time;durP1;ratioP1;P1;durP2;ratioP2;P2;SDS_P1;SDS_P2;PMS_P1;PMS_P2;Temp;Humidity;BMP_temperature;BMP_pressure;BME280_temperature;BME280_humidity;BME280_pressure;Samples;Min_cycle;Max_cycle;Signal;HPM_P1;HPM_P2
2022/08/09 08:01:38;;;;;;;11.25;8.32;;;;;;;19.58;71.84;102628.34;5318881;27;20174;-72
2022/08/09 08:04:09;;;;;;;13.52;8.00;;;;;;;19.55;71.33;102630.63;5317765;28;20479;-73
2022/08/09 08:06:44;;;;;;;11.77;7.78;;;;;;;19.68;71.51;102633.84;5307097;28;20054;-72
2022/08/09 08:09:16;;;;;;;8.93;8.02;;;;;;;19.67;70.29;102643.44;5310471;28;20032;-73
2022/08/09 08:11:48;;;;;;;8.63;7.60;;;;;;;19.80;70.72;102636.19;5317295;28;20494;-73
2022/08/09 08:14:19;;;;;;;7.93;7.10;;;;;;;19.95;70.17;102633.91;5304486;28;20024;-74
2022/08/09 08:16:51;;;;;;;9.23;7.03;;;;;;;20.13;69.46;102639.78;5313646;28;20095;-74
2022/08/09 08:19:22;;;;;;;9.68;7.38;;;;;;;20.10;69.28;102634.78;5313269;28;20019;-73
2022/08/09 08:21:53;;;;;;;9.27;8.38;;;;;;;20.14;68.56;102638.63;5303262;28;20020;-72
2022/08/09 08:24:25;;;;;;;7.40;6.38;;;;;;;20.24;69.04;102631.94;5315392;28;20424;-74
2022/08/09 08:26:56;;;;;;;8.82;7.05;;;;;;;20.25;68.89;102637.28;5312809;28;20016;-73
2022/08/09 08:29:28;;;;;;;7.68;6.68;;;;;;;20.29;67.82;102627.03;5313227;28;20028;-74
2022/08/09 08:31:59;;;;;;;10.50;7.68;;;;;;;20.40;67.44;102634.16;5304998;28;20447;-74
2022/08/09 08:34:30;;;;;;;9.73;6.78;;;;;;;20.54;67.35;102625.72;5320323;28;20040;-74
2022/08/09 08:37:03;;;;;;;6.43;5.85;;;;;;;20.73;66.59;102631.19;5311596;28;20028;-74
2022/08/09 08:39:35;;;;;;;9.32;6.57;;;;;;;20.70;65.50;102634.66;5312282;28;20020;-74
2022/08/09 08:42:07;;;;;;;8.98;5.65;;;;;;;20.87;64.27;102633.19;5316629;28;20360;-74
2022/08/09 08:44:45;;;;;;;7.32;5.35;;;;;;;20.78;64.10;102633.91;5307638;28;20028;-73
2022/08/09 08:47:16;;;;;;;6.40;5.32;;;;;;;20.81;62.80;102630.47;5309642;28;20107;-74
2022/08/09 08:49:48;;;;;;;9.32;5.80;;;;;;;20.95;63.96;102623.97;5301372;28;20107;-73
2022/08/09 08:52:24;;;;;;;7.93;5.63;;;;;;;21.08;64.04;102636.34;5312354;28;20027;-73
2022/08/09 08:54:57;;;;;;;6.53;5.55;;;;;;;21.15;64.05;102622.66;5312100;28;20056;-73
2022/08/09 08:57:29;;;;;;;7.40;5.70;;;;;;;21.20;63.13;102617.72;5312900;28;20023;-74
2022/08/09 09:00:00;;;;;;;9.68;4.22;;;;;;;21.26;61.81;102627.72;5303642;28;20049;-73
2022/08/09 09:02:32;;;;;;;8.07;4.13;;;;;;;21.40;60.86;102626.88;5305033;28;20071;-74
2022/08/09 09:05:03;;;;;;;132.13;116.18;;;;;;;21.49;59.83;102634.22;5310914;28;20024;-70
2022/08/09 09:07:35;;;;;;;29.75;26.98;;;;;;;21.54;60.19;102644.56;5314502;28;20066;-71
2022/08/09 09:10:08;;;;;;;9.65;6.97;;;;;;;21.75;59.80;102641.19;5317043;28;20035;-70
2022/08/09 09:12:43;;;;;;;6.63;4.30;;;;;;;21.78;59.74;102646.19;5293602;28;20107;-71
2022/08/09 09:15:15;;;;;;;5.57;3.63;;;;;;;21.82;58.82;102655.69;5294339;28;20028;-70
2022/08/09 09:17:46;;;;;;;4.40;2.90;;;;;;;21.86;58.09;102656.75;5284966;28;20459;-70
2022/08/09 09:20:17;;;;;;;6.00;3.17;;;;;;;21.88;57.72;102645.94;5289305;28;20038;-70
2022/08/09 09:22:53;;;;;;;5.22;3.85;;;;;;;21.95;58.05;102660.44;5298320;28;20028;-71
2022/08/09 09:25:41;;;;;;;6.60;2.90;;;;;;;22.01;58.42;102650.66;5292569;28;20024;-70
2022/08/09 09:28:13;;;;;;;3.35;2.75;;;;;;;22.13;56.45;102650.88;5302110;28;20021;-70
2022/08/09 09:30:55;;;;;;;5.07;2.72;;;;;;;22.12;57.05;102656.88;5292149;28;20162;-70
2022/08/09 09:33:33;;;;;;;4.40;3.28;;;;;;;22.20;56.57;102650.44;5293127;28;20035;-73
2022/08/09 09:36:07;;;;;;;4.20;3.03;;;;;;;22.23;56.70;102643.31;5288057;28;20016;-74
2022/08/09 09:38:51;;;;;;;5.50;2.95;;;;;;;22.34;56.17;102644.69;5298530;28;20082;-73
2022/08/09 09:41:23;;;;;;;4.38;2.38;;;;;;;22.54;54.36;102641.25;5297880;28;20039;-74
2022/08/09 09:43:56;;;;;;;4.32;2.50;;;;;;;22.46;53.97;102639.22;5304838;28;20463;-71
2022/08/09 09:46:29;;;;;;;6.15;3.63;;;;;;;22.38;54.90;102640.03;5289282;28;20024;-73
2022/08/09 09:49:06;;;;;;;3.72;2.95;;;;;;;22.43;53.87;102627.75;5295971;28;20048;-73
2022/08/09 09:51:39;;;;;;;4.63;3.47;;;;;;;22.78;52.06;102642.81;5293492;28;20024;-72
2022/08/09 09:54:19;;;;;;;5.93;5.22;;;;;;;22.87;52.41;102646.47;5288672;28;20536;-73
2022/08/09 09:56:51;;;;;;;3.33;1.75;;;;;;;23.02;51.15;102644.38;5299489;28;20030;-72
2022/08/09 09:59:33;;;;;;;5.55;2.10;;;;;;;23.09;50.48;102639.06;5291913;28;20427;-73
2022/08/09 10:02:05;;;;;;;2.13;1.60;;;;;;;23.16;50.08;102647.84;5297263;28;20046;-74
2022/08/09 10:04:37;;;;;;;6.60;1.60;;;;;;;23.13;49.81;102643.69;5291085;28;20035;-72
2022/08/09 10:07:23;;;;;;;3.40;1.55;;;;;;;23.15;50.26;102634.88;5294083;28;20025;-74
2022/08/09 10:09:56;;;;;;;4.15;1.85;;;;;;;23.14;49.93;102650.22;5286487;28;20107;-73
2022/08/09 10:12:35;;;;;;;3.65;1.33;;;;;;;23.21;49.41;102650.53;5300584;28;20459;-74
2022/08/09 10:15:14;;;;;;;3.45;1.67;;;;;;;23.23;49.04;102654.69;5294928;28;20428;-74
2022/08/09 10:17:47;;;;;;;6.38;1.83;;;;;;;23.25;49.44;102648.72;5304751;28;20421;-74
2022/08/09 10:20:22;;;;;;;5.28;1.90;;;;;;;23.40;49.13;102645.38;5287429;28;20023;-71
2022/08/09 10:22:59;;;;;;;3.42;1.63;;;;;;;23.39;48.38;102640.88;5295289;28;20430;-70
2022/08/09 10:25:30;;;;;;;8.52;6.70;;;;;;;23.51;48.91;102639.34;5294113;28;20020;-70
2022/08/09 10:28:05;;;;;;;3.70;1.83;;;;;;;23.52;48.05;102636.22;5299891;28;20031;-72
2022/08/09 10:30:36;;;;;;;4.22;1.40;;;;;;;23.51;47.22;102647.84;5290730;28;20051;-72
2022/08/09 10:33:08;;;;;;;2.85;2.35;;;;;;;23.52;47.12;102641.00;5294512;28;20486;-72
2022/08/09 10:35:41;;;;;;;3.30;1.60;;;;;;;23.59;48.29;102632.84;5291033;28;20028;-72
2022/08/09 10:38:13;;;;;;;3.00;2.08;;;;;;;23.72;48.18;102631.84;5290443;28;20020;-72
2022/08/09 10:40:45;;;;;;;2.20;1.38;;;;;;;23.82;47.60;102630.66;5291830;28;20028;-72
2022/08/09 10:43:18;;;;;;;2.05;1.40;;;;;;;23.82;47.13;102631.47;5293438;28;20101;-71
2022/08/09 10:45:49;;;;;;;2.95;1.70;;;;;;;23.83;46.78;102627.50;5300408;28;20024;-73
2022/08/09 10:48:30;;;;;;;2.50;1.70;;;;;;;23.86;46.59;102626.81;5284534;28;20074;-74
2022/08/09 10:51:13;;;;;;;3.45;1.85;;;;;;;23.91;46.80;102619.31;5283515;28;20028;-74
2022/08/09 10:54:06;;;;;;;1.77;1.27;;;;;;;24.06;46.96;102618.75;5299591;28;20038;-70
2022/08/09 10:56:39;;;;;;;4.32;1.95;;;;;;;24.08;46.39;102619.22;5283609;28;20043;-70
2022/08/09 10:59:27;;;;;;;2.50;1.23;;;;;;;24.15;45.10;102622.38;5292538;28;20024;-70
2022/08/09 11:01:58;;;;;;;5.40;2.33;;;;;;;24.14;45.33;102619.91;5295960;28;20150;-69
2022/08/09 11:04:31;;;;;;;4.03;2.65;;;;;;;24.06;45.04;102607.44;5288775;28;20103;-70
2022/08/09 11:07:02;;;;;;;3.22;1.60;;;;;;;24.15;45.20;102602.53;5294746;28;20031;-69
2022/08/09 11:09:42;;;;;;;3.50;1.33;;;;;;;24.35;44.79;102617.13;5296630;28;20387;-68
2022/08/09 11:12:18;;;;;;;3.45;1.55;;;;;;;24.29;44.95;102610.81;5288142;28;20282;-69
2022/08/09 11:14:55;;;;;;;2.60;1.50;;;;;;;24.28;44.21;102609.13;5291393;28;20491;-69
2022/08/09 11:17:26;;;;;;;1.17;1.08;;;;;;;24.38;43.77;102610.75;5297441;28;20031;-69
2022/08/09 11:20:00;;;;;;;3.40;1.67;;;;;;;24.33;44.28;102611.78;5288561;28;20031;-69
2022/08/09 11:22:41;;;;;;;9.43;7.10;;;;;;;24.41;44.64;102610.06;5288773;28;20267;-69
2022/08/09 11:25:14;;;;;;;4.00;1.45;;;;;;;24.51;44.43;102619.03;5282853;28;20051;-68
2022/08/09 11:27:48;;;;;;;4.65;0.98;;;;;;;24.59;43.26;102614.50;5285781;28;20032;-70
2022/08/09 11:30:31;;;;;;;2.20;1.45;;;;;;;24.81;43.22;102599.16;5301189;28;20099;-69
2022/08/09 11:33:31;;;;;;;2.95;1.20;;;;;;;24.69;44.47;102614.09;5293994;28;20055;-69
2022/08/09 11:36:02;;;;;;;3.58;1.30;;;;;;;24.82;44.68;102592.31;5291434;28;20464;-69
2022/08/09 11:38:35;;;;;;;3.22;1.60;;;;;;;24.80;43.77;102591.84;5281980;28;20028;-69
2022/08/09 11:41:10;;;;;;;6.28;2.53;;;;;;;24.91;42.98;102589.41;5291024;28;20529;-70
2022/08/09 11:43:47;;;;;;;1.98;1.20;;;;;;;24.86;41.94;102595.28;5289820;28;20074;-69
2022/08/09 11:46:18;;;;;;;4.25;1.38;;;;;;;24.80;42.24;102582.47;5287766;28;20020;-69
2022/08/09 11:48:56;;;;;;;11.85;10.85;;;;;;;25.03;42.75;102586.66;5295109;28;20427;-69
2022/08/09 11:51:28;;;;;;;13.65;12.27;;;;;;;24.98;42.45;102580.31;5282775;28;20032;-68
2022/08/09 11:54:16;;;;;;;6.32;1.85;;;;;;;25.17;42.14;102583.53;5285993;28;20081;-69
2022/08/09 11:56:50;;;;;;;1.95;1.30;;;;;;;25.19;42.01;102578.34;5290560;28;20051;-68
2022/08/09 11:59:26;;;;;;;2.00;1.25;;;;;;;25.40;41.34;102575.47;5300223;28;20074;-69
2022/08/09 12:01:57;;;;;;;3.78;1.80;;;;;;;25.34;40.38;102577.69;5286646;28;20387;-68
2022/08/09 12:04:29;;;;;;;31.48;4.25;;;;;;;25.41;41.10;102579.13;5282424;28;20031;-69
2022/08/09 12:07:00;;;;;;;2.55;1.38;;;;;;;25.27;41.63;102568.09;5281760;28;20021;-69
2022/08/09 12:09:33;;;;;;;2.45;1.38;;;;;;;25.42;41.28;102549.56;5293784;28;20034;-69
2022/08/09 12:12:07;;;;;;;4.68;2.42;;;;;;;25.39;40.92;102562.44;5286745;28;20472;-69
2022/08/09 12:14:39;;;;;;;7.17;6.47;;;;;;;25.64;40.42;102557.63;5295278;28;20032;-68
2022/08/09 12:17:14;;;;;;;3.72;1.65;;;;;;;25.75;40.79;102567.38;5296164;28;20293;-70
2022/08/09 12:19:45;;;;;;;4.88;1.40;;;;;;;25.70;40.33;102561.94;5299028;28;20391;-69
2022/08/09 12:22:19;;;;;;;2.10;1.27;;;;;;;25.77;40.27;102567.88;5286673;28;20027;-69
2022/08/09 12:24:50;;;;;;;3.60;1.30;;;;;;;25.93;39.57;102568.03;5295319;28;20103;-69
2022/08/09 12:27:21;;;;;;;2.20;1.20;;;;;;;25.92;39.94;102563.50;5293367;28;20103;-70
2022/08/09 12:29:57;;;;;;;2.55;1.30;;;;;;;25.93;38.78;102565.19;5286517;28;20055;-70
2022/08/09 12:32:28;;;;;;;3.75;1.30;;;;;;;25.96;38.59;102563.66;5302128;28;20028;-70
2022/08/09 12:35:03;;;;;;;3.85;1.33;;;;;;;26.15;39.67;102554.53;5292882;28;20020;-71
2022/08/09 12:37:37;;;;;;;2.57;1.50;;;;;;;26.24;39.55;102558.09;5296858;28;20475;-70
2022/08/09 12:40:10;;;;;;;3.22;1.30;;;;;;;26.34;39.71;102548.25;5295090;28;20048;-70
2022/08/09 12:42:43;;;;;;;5.30;1.70;;;;;;;26.44;38.62;102542.06;5289109;28;20039;-69
2022/08/09 12:45:14;;;;;;;1.85;1.38;;;;;;;26.40;38.06;102544.78;5291599;28;20472;-71
2022/08/09 12:47:49;;;;;;;1.80;1.23;;;;;;;26.44;36.65;102544.91;5286519;28;20105;-70
2022/08/09 12:50:20;;;;;;;2.55;1.23;;;;;;;26.46;36.94;102546.22;5299674;28;20039;-71
2022/08/09 12:52:52;;;;;;;1.80;1.20;;;;;;;26.57;37.28;102525.84;5280116;28;20028;-71
2022/08/09 12:55:25;;;;;;;3.20;2.25;;;;;;;26.63;37.25;102533.75;5299292;28;20157;-70
2022/08/09 12:57:58;;;;;;;4.25;1.60;;;;;;;26.83;37.94;102540.44;5296700;28;20073;-71
2022/08/09 13:00:33;;;;;;;2.17;1.05;;;;;;;26.95;37.45;102538.75;5291200;28;20044;-69
2022/08/09 13:03:05;;;;;;;1.27;1.05;;;;;;;26.95;37.34;102535.91;5304382;28;20480;-69
2022/08/09 13:05:45;;;;;;;4.03;1.25;;;;;;;26.82;36.86;102535.94;5291019;28;20028;-70
2022/08/09 13:08:21;;;;;;;3.25;1.50;;;;;;;26.96;36.12;102534.72;5286071;28;20424;-70
2022/08/09 13:10:58;;;;;;;1.95;1.27;;;;;;;27.14;36.07;102533.19;5293158;28;20024;-69
2022/08/09 13:13:35;;;;;;;4.03;1.20;;;;;;;27.14;36.82;102527.50;5292179;28;20449;-70
2022/08/09 13:16:14;;;;;;;4.38;2.13;;;;;;;27.32;37.00;102525.19;5295627;28;20537;-69
2022/08/09 13:18:48;;;;;;;2.78;2.22;;;;;;;27.41;36.43;102525.84;5298612;28;20025;-70
2022/08/09 13:21:26;;;;;;;5.53;3.63;;;;;;;27.29;36.42;102535.28;5298236;28;20032;-69
2022/08/09 13:23:59;;;;;;;4.78;3.50;;;;;;;27.23;35.34;102519.66;5289525;28;20274;-71
2022/08/09 13:26:31;;;;;;;34.53;30.85;;;;;;;27.23;35.38;102519.66;5300772;28;20119;-70
2022/08/09 13:29:07;;;;;;;10.68;9.68;;;;;;;27.40;35.95;102511.97;5295141;28;20115;-69
2022/08/09 13:32:05;;;;;;;3.20;1.83;;;;;;;27.61;35.62;102511.69;5295617;28;20047;-70
2022/08/09 13:34:40;;;;;;;4.85;1.70;;;;;;;27.63;34.92;102512.16;5291847;28;20032;-69
2022/08/09 13:37:11;;;;;;;3.90;1.77;;;;;;;27.66;34.94;102505.72;5290538;28;20127;-69
2022/08/09 13:39:43;;;;;;;6.72;5.70;;;;;;;27.44;33.76;102510.88;5289816;28;20119;-68
2022/08/09 13:42:17;;;;;;;2.60;1.30;;;;;;;27.67;33.38;102511.06;5288364;28;20020;-69
2022/08/09 13:44:49;;;;;;;1.85;1.58;;;;;;;27.61;34.08;102501.16;5294546;28;20490;-68
2022/08/09 13:47:20;;;;;;;4.00;1.33;;;;;;;27.38;34.69;102500.09;5294421;28;20096;-68
2022/08/09 13:49:51;;;;;;;5.47;2.70;;;;;;;27.62;34.05;102502.78;5287401;28;20027;-68
2022/08/09 13:52:23;;;;;;;14.93;10.57;;;;;;;27.75;33.82;102501.50;5300376;28;20052;-69
2022/08/09 13:54:55;;;;;;;3.00;1.30;;;;;;;27.75;34.38;102504.34;5291441;28;20050;-69
2022/08/09 13:57:27;;;;;;;3.80;2.03;;;;;;;27.79;34.48;102501.59;5287998;28;20025;-70
2022/08/09 14:00:03;;;;;;;2.70;1.20;;;;;;;27.92;34.48;102491.78;5288228;28;20495;-72
2022/08/09 14:02:35;;;;;;;2.15;1.40;;;;;;;27.94;33.87;102494.25;5299235;28;20387;-71
2022/08/09 14:05:06;;;;;;;3.25;1.50;;;;;;;27.99;34.51;102488.25;5294588;28;20028;-70
2022/08/09 14:07:38;;;;;;;5.45;1.42;;;;;;;28.37;34.79;102492.41;5290914;28;20036;-69
2022/08/09 14:10:11;;;;;;;3.78;1.30;;;;;;;28.30;33.08;102501.63;5299063;28;20709;-71
2022/08/09 14:12:42;;;;;;;3.65;1.20;;;;;;;28.30;33.38;102493.09;5291162;28;20027;-69
2022/08/09 14:15:13;;;;;;;1.20;0.90;;;;;;;28.35;33.39;102492.78;5302923;28;20029;-71
2022/08/09 14:17:45;;;;;;;1.73;1.27;;;;;;;28.42;33.49;102499.84;5305503;28;20024;-69
2022/08/09 14:20:16;;;;;;;2.10;1.33;;;;;;;28.42;32.81;102494.16;5290864;28;20024;-70
2022/08/09 14:22:47;;;;;;;1.20;1.05;;;;;;;28.42;33.33;102499.84;5299999;28;20144;-70
2022/08/09 14:25:19;;;;;;;1.50;1.30;;;;;;;28.28;33.62;102495.47;5299660;28;20054;-72
2022/08/09 14:27:50;;;;;;;2.08;1.20;;;;;;;28.57;33.34;102490.44;5289901;28;20020;-71
2022/08/09 14:30:21;;;;;;;3.15;1.30;;;;;;;28.50;32.54;102485.38;5292522;28;20108;-71
2022/08/09 14:32:52;;;;;;;2.22;1.23;;;;;;;28.50;32.96;102484.56;5296074;28;20430;-72
2022/08/09 14:35:24;;;;;;;3.65;1.42;;;;;;;28.64;33.62;102479.19;5310624;28;20475;-71
2022/08/09 14:37:55;;;;;;;1.75;1.30;;;;;;;28.57;32.72;102476.97;5304572;28;20028;-70
2022/08/09 14:40:27;;;;;;;4.55;0.98;;;;;;;28.50;32.13;102468.25;5297965;28;20506;-71
2022/08/09 14:42:58;;;;;;;5.20;4.20;;;;;;;28.47;32.29;102474.72;5304420;28;20086;-71
2022/08/09 14:45:29;;;;;;;7.40;6.72;;;;;;;28.59;32.04;102468.88;5306747;28;20012;-71
2022/08/09 14:48:01;;;;;;;1.77;1.23;;;;;;;28.46;32.25;102467.38;5290829;28;20052;-72
2022/08/09 14:50:33;;;;;;;26.58;23.40;;;;;;;28.47;32.78;102474.72;5291520;28;20475;-73
2022/08/09 14:53:08;;;;;;;6.55;5.88;;;;;;;28.22;32.34;102485.53;5294238;28;20024;-71
2022/08/09 14:55:40;;;;;;;14.77;13.45;;;;;;;28.42;33.13;102483.56;5293203;28;20020;-70
2022/08/09 14:58:15;;;;;;;3.67;2.10;;;;;;;28.39;33.49;102479.41;5297443;28;20086;-69
2022/08/09 15:00:46;;;;;;;2.72;1.20;;;;;;;28.24;34.30;102476.63;5292026;28;20048;-72
2022/08/09 15:03:18;;;;;;;3.17;1.27;;;;;;;28.17;34.34;102478.13;5285486;28;20356;-73
2022/08/09 15:05:50;;;;;;;2.60;1.35;;;;;;;28.13;34.11;102476.38;5286320;28;20458;-72
2022/08/09 15:08:22;;;;;;;2.38;1.05;;;;;;;27.90;34.76;102468.50;5287730;28;20024;-71
2022/08/09 15:10:53;;;;;;;3.90;1.20;;;;;;;27.92;35.08;102459.59;5295817;28;20107;-74
2022/08/09 15:13:24;;;;;;;2.97;1.20;;;;;;;27.91;35.40;102469.31;5291114;28;20028;-72
2022/08/09 15:15:56;;;;;;;2.13;1.20;;;;;;;27.88;34.89;102461.53;5285237;28;20032;-71
2022/08/09 15:18:27;;;;;;;4.55;1.10;;;;;;;27.84;34.33;102466.31;5299023;28;20024;-71
2022/08/09 15:20:58;;;;;;;3.78;1.40;;;;;;;27.84;34.58;102469.16;5293619;28;20024;-72
2022/08/09 15:23:31;;;;;;;3.65;1.10;;;;;;;27.80;34.45;102469.03;5302193;28;20092;-71
2022/08/09 15:26:03;;;;;;;1.95;1.40;;;;;;;27.58;34.26;102467.66;5287875;28;20381;-71
2022/08/09 15:28:34;;;;;;;5.10;4.30;;;;;;;27.75;34.93;102469.31;5292366;28;20047;-72
2022/08/09 15:31:05;;;;;;;4.53;1.50;;;;;;;27.71;35.27;102466.41;5294337;28;20023;-71
2022/08/09 15:33:37;;;;;;;3.38;1.83;;;;;;;27.64;35.12;102459.69;5295360;28;20039;-71
2022/08/09 15:36:08;;;;;;;4.88;4.22;;;;;;;27.59;35.24;102457.13;5292195;28;20036;-71
2022/08/09 15:38:40;;;;;;;2.72;1.27;;;;;;;27.48;35.22;102463.38;5296268;28;20493;-73
2022/08/09 15:41:11;;;;;;;3.50;1.35;;;;;;;27.56;35.04;102464.38;5300951;28;20494;-71
2022/08/09 15:43:42;;;;;;;4.68;2.83;;;;;;;27.39;35.85;102464.75;5290747;28;20025;-71
2022/08/09 15:46:14;;;;;;;4.68;3.08;;;;;;;27.27;35.78;102457.91;5300331;28;20521;-70
2022/08/09 15:48:48;;;;;;;3.25;1.50;;;;;;;27.14;36.73;102459.16;5296324;28;20360;-72
2022/08/09 15:51:19;;;;;;;2.23;1.30;;;;;;;27.04;36.64;102451.16;5292632;28;20032;-72
2022/08/09 15:53:51;;;;;;;3.53;1.48;;;;;;;26.95;36.60;102459.88;5297082;28;20758;-70
2022/08/09 15:56:22;;;;;;;2.55;1.15;;;;;;;27.15;36.62;102459.97;5298650;28;20029;-72
2022/08/09 15:58:53;;;;;;;2.65;1.58;;;;;;;27.05;37.32;102450.81;5291871;28;20059;-71
2022/08/09 16:01:25;;;;;;;2.50;1.48;;;;;;;27.00;36.96;102448.22;5289850;28;20055;-68
2022/08/09 16:03:56;;;;;;;3.47;1.40;;;;;;;26.92;36.83;102440.69;5294431;28;20108;-68
2022/08/09 16:06:27;;;;;;;3.80;1.20;;;;;;;26.99;36.86;102446.56;5288174;28;20044;-68
2022/08/09 16:08:59;;;;;;;2.85;1.50;;;;;;;26.99;36.26;102431.50;5293798;28;20451;-69
2022/08/09 16:11:30;;;;;;;2.15;1.30;;;;;;;27.05;36.44;102430.06;5295679;28;20095;-68
2022/08/09 16:14:04;;;;;;;4.20;1.23;;;;;;;27.04;36.62;102436.91;5286933;28;20025;-68
2022/08/09 16:16:38;;;;;;;3.55;1.33;;;;;;;27.06;36.04;102431.69;5297343;28;20475;-69
2022/08/09 16:19:10;;;;;;;3.83;1.30;;;;;;;27.08;35.71;102435.84;5292270;28;20028;-70
2022/08/09 16:21:45;;;;;;;1.98;1.30;;;;;;;27.04;36.33;102434.06;5289137;28;20028;-71
2022/08/09 16:24:17;;;;;;;2.10;1.00;;;;;;;27.16;36.37;102425.47;5290827;28;20077;-69
2022/08/09 16:26:48;;;;;;;3.42;1.13;;;;;;;27.31;35.71;102423.84;5298864;28;20032;-68
2022/08/09 16:29:19;;;;;;;2.65;1.30;;;;;;;27.22;36.37;102426.88;5287746;28;20032;-70
2022/08/09 16:31:51;;;;;;;4.50;1.50;;;;;;;27.15;36.49;102428.66;5303184;28;20036;-69
2022/08/09 16:34:22;;;;;;;3.67;1.42;;;;;;;27.35;36.54;102424.75;5298568;28;20032;-68
2022/08/09 16:36:53;;;;;;;2.35;1.40;;;;;;;27.46;35.82;102427.91;5292189;28;20016;-70
2022/08/09 16:39:25;;;;;;;1.95;1.50;;;;;;;27.54;35.62;102424.84;5293936;28;20086;-69
2022/08/09 16:41:56;;;;;;;3.58;2.60;;;;;;;27.42;35.88;102426.97;5288192;28;20467;-69
2022/08/09 16:44:27;;;;;;;4.30;2.40;;;;;;;27.49;35.73;102430.00;5301886;28;20493;-68
2022/08/09 16:46:59;;;;;;;2.28;1.30;;;;;;;27.57;35.30;102425.31;5294029;28;20031;-70
2022/08/09 16:49:30;;;;;;;3.33;1.50;;;;;;;27.53;35.37;102428.06;5298030;28;20020;-68
2022/08/09 16:52:02;;;;;;;1.75;1.10;;;;;;;27.50;35.85;102420.25;5290568;28;20111;-68
2022/08/09 16:54:33;;;;;;;3.13;1.20;;;;;;;27.58;35.35;102424.09;5300136;28;20028;-69
2022/08/09 16:57:04;;;;;;;1.63;1.10;;;;;;;27.83;35.46;102433.31;5287732;28;20021;-68
2022/08/09 16:59:35;;;;;;;4.22;1.48;;;;;;;27.74;35.68;102424.94;5286414;28;20044;-70
2022/08/09 17:02:07;;;;;;;4.50;1.40;;;;;;;27.66;35.49;102412.53;5304062;28;20513;-68
2022/08/09 17:04:39;;;;;;;2.30;1.05;;;;;;;27.62;35.31;102422.19;5299544;28;20058;-69
2022/08/09 17:07:10;;;;;;;2.72;1.15;;;;;;;27.78;34.80;102419.31;5297229;28;20024;-68
2022/08/09 17:09:42;;;;;;;2.67;1.15;;;;;;;27.87;35.16;102417.94;5291146;28;20109;-68
2022/08/09 17:12:14;;;;;;;4.78;1.33;;;;;;;27.94;35.26;102420.97;5302336;28;20406;-68
2022/08/09 17:14:45;;;;;;;2.58;1.13;;;;;;;27.70;35.17;102427.69;5292862;28;20028;-69
2022/08/09 17:17:17;;;;;;;4.32;1.30;;;;;;;27.82;35.35;102431.66;5295383;28;20459;-69
2022/08/09 17:19:48;;;;;;;2.28;1.25;;;;;;;27.85;35.17;102422.38;5292668;28;20038;-68
2022/08/09 17:22:20;;;;;;;5.78;1.33;;;;;;;27.96;35.29;102420.56;5292913;28;20020;-69
2022/08/09 17:24:52;;;;;;;2.92;1.35;;;;;;;27.92;34.86;102431.91;5294016;28;20035;-68
2022/08/09 17:27:26;;;;;;;6.90;2.03;;;;;;;27.78;35.17;102430.72;5293509;28;20058;-69
2022/08/09 17:30:00;;;;;;;2.50;1.10;;;;;;;27.63;35.04;102429.53;5299298;28;20027;-68
